Raynham Center, Massachusetts
Current Conditions -  °F | °C
As of 8:20 PM on Tuesday 21 Oct 2014 (Local Time) from KTAN Reporting Station
Scattered Clouds Scattered Clouds  
Wind Chill: 55°   Ceiling: Unl
Heat Index: 55°   Visibility: 9mi
Dew Point: 53°   Wind: 3mph
Humidity: 93%   Direction: 360°N
Pressure: 29.92"   Gusts: NA
Location:  41.93°N, 71.04°W
Report Text: KTAN 220020Z AUTO 36003KT 9SM SCT013 13/12 A2992 RMK AO2 T01280117
Loading
Personal Weather Stations






























Interactive Weather Map
Tropical Storm Tracking
New forecast layout! Learn more

10-Day Weather Forecast

Advertisements
Track Severe Weather on mobile